Time;durP1;ratioP1;P1;durP2;ratioP2;P2;SDS_P1;SDS_P2;PMS_P1;PMS_P2;Temp;Humidity;BMP_temperature;BMP_pressure;BME280_temperature;BME280_humidity;BME280_pressure;Samples;Min_cycle;Max_cycle;Signal;HPM_P1;HPM_P2
2021/06/25 00:01:52;;;;;;;58.63;37.38;;;20.10;75.00;;;;;;5092559;28;20020;-53
2021/06/25 00:04:19;;;;;;;58.17;34.97;;;20.20;74.60;;;;;;5092793;28;20067;-56
2021/06/25 00:06:47;;;;;;;53.33;32.50;;;20.30;73.70;;;;;;5092414;28;20098;-56
2021/06/25 00:09:15;;;;;;;46.08;30.85;;;20.50;70.40;;;;;;5092740;28;20032;-55
2021/06/25 00:11:43;;;;;;;47.17;28.55;;;20.60;68.40;;;;;;5092706;28;20496;-53
2021/06/25 00:14:10;;;;;;;56.88;35.60;;;20.60;71.70;;;;;;5092648;28;20101;-54
2021/06/25 00:16:37;;;;;;;56.50;34.00;;;20.60;72.70;;;;;;5092377;28;20055;-58
2021/06/25 00:19:05;;;;;;;47.97;31.58;;;20.70;72.20;;;;;;5091981;28;20027;-53
2021/06/25 00:21:32;;;;;;;58.95;33.35;;;20.70;71.60;;;;;;5092491;28;20494;-58
2021/06/25 00:24:00;;;;;;;42.15;25.35;;;20.80;71.00;;;;;;5092357;28;20114;-51
2021/06/25 00:26:27;;;;;;;47.67;30.52;;;20.90;68.20;;;;;;5092363;28;20454;-51
2021/06/25 00:28:54;;;;;;;48.95;30.92;;;20.70;68.90;;;;;;5092371;28;20419;-54
2021/06/25 00:31:22;;;;;;;34.08;21.98;;;20.90;71.40;;;;;;5093036;28;20072;-56
2021/06/25 00:33:50;;;;;;;47.33;30.25;;;20.90;65.40;;;;;;5092724;28;20471;-55
2021/06/25 00:36:17;;;;;;;41.03;26.00;;;21.00;67.30;;;;;;5074196;28;20474;-53
2021/06/25 00:38:44;;;;;;;43.28;26.60;;;21.00;70.30;;;;;;5092496;28;20382;-55
2021/06/25 00:41:12;;;;;;;28.30;18.52;;;21.00;70.70;;;;;;5091946;28;20028;-53
2021/06/25 00:43:40;;;;;;;36.47;22.52;;;21.10;66.40;;;;;;5091969;28;20027;-53
2021/06/25 00:46:07;;;;;;;29.30;18.25;;;21.10;69.30;;;;;;5090874;28;20093;-57
2021/06/25 00:48:35;;;;;;;36.88;23.48;;;21.40;63.00;;;;;;5092222;28;20139;-53
2021/06/25 00:51:03;;;;;;;39.65;23.40;;;21.30;69.40;;;;;;5091578;28;20482;-54
2021/06/25 00:53:30;;;;;;;31.35;20.35;;;21.30;69.30;;;;;;5092420;28;20347;-57
2021/06/25 00:55:58;;;;;;;34.35;21.45;;;21.30;69.10;;;;;;5092105;28;20062;-58
2021/06/25 00:58:25;;;;;;;34.80;20.98;;;21.30;68.90;;;;;;5091915;28;20020;-55
2021/06/25 01:00:52;;;;;;;25.55;16.05;;;21.20;69.10;;;;;;5092469;28;20542;-52
2021/06/25 01:03:20;;;;;;;31.08;18.23;;;21.30;65.40;;;;;;5092342;28;20027;-51
2021/06/25 01:05:47;;;;;;;29.48;18.55;;;21.20;65.10;;;;;;5091805;28;20058;-52
2021/06/25 01:08:15;;;;;;;24.05;15.98;;;21.30;68.80;;;;;;5091941;28;20418;-52
2021/06/25 01:10:42;;;;;;;22.90;14.80;;;21.40;67.70;;;;;;5091968;28;20056;-55
2021/06/25 01:13:10;;;;;;;23.33;15.13;;;21.60;67.20;;;;;;5091438;28;20059;-53
2021/06/25 01:15:38;;;;;;;25.05;15.40;;;21.70;67.80;;;;;;5091677;28;20411;-58
2021/06/25 01:18:05;;;;;;;23.73;14.32;;;21.50;67.50;;;;;;5091822;28;20020;-55
2021/06/25 01:20:36;;;;;;;24.08;14.90;;;21.60;66.40;;;;;;5092859;28;20077;-54
2021/06/25 01:23:04;;;;;;;24.27;15.27;;;21.70;66.10;;;;;;5096216;28;20023;-56
2021/06/25 01:25:37;;;;;;;24.13;15.55;;;21.90;66.70;;;;;;5095820;28;20019;-57
2021/06/25 01:28:10;;;;;;;20.98;13.15;;;21.80;64.10;;;;;;5095806;28;20071;-55
2021/06/25 01:30:40;;;;;;;24.27;12.70;;;21.90;64.40;;;;;;5095812;28;20483;-52
2021/06/25 01:33:10;;;;;;;20.55;12.27;;;22.00;63.20;;;;;;5095199;28;20020;-57
2021/06/25 01:35:38;;;;;;;38.88;13.32;;;22.00;62.50;;;;;;5095577;28;20028;-54
2021/06/25 01:38:06;;;;;;;21.00;12.40;;;22.10;63.30;;;;;;5096060;28;20054;-55
2021/06/25 01:40:38;;;;;;;15.43;9.27;;;22.20;62.90;;;;;;5095754;28;20024;-58
2021/06/25 01:43:08;;;;;;;13.20;9.95;;;22.10;62.90;;;;;;5095608;28;20054;-53
2021/06/25 01:45:39;;;;;;;11.38;7.72;;;22.00;61.30;;;;;;5095856;28;20475;-54
2021/06/25 01:48:07;;;;;;;14.82;8.68;;;22.20;64.30;;;;;;5095767;28;20036;-54
2021/06/25 01:50:38;;;;;;;17.38;10.40;;;22.30;60.70;;;;;;5092792;28;20035;-57
2021/06/25 01:53:12;;;;;;;14.38;9.45;;;22.20;64.40;;;;;;5095466;28;20028;-53
2021/06/25 01:55:41;;;;;;;15.07;10.00;;;22.30;64.10;;;;;;5095244;28;20062;-58
2021/06/25 01:58:13;;;;;;;15.48;10.32;;;22.30;62.50;;;;;;5094158;28;20020;-51
2021/06/25 02:00:48;;;;;;;12.40;8.38;;;22.20;64.80;;;;;;5095235;28;20410;-53
2021/06/25 02:03:15;;;;;;;12.50;8.35;;;22.30;61.40;;;;;;5095051;28;20439;-56
2021/06/25 02:05:43;;;;;;;18.30;10.00;;;22.30;62.70;;;;;;5095106;28;20410;-53
2021/06/25 02:08:10;;;;;;;12.60;8.00;;;22.30;61.80;;;;;;5110983;28;20030;-53
2021/06/25 02:10:37;;;;;;;10.43;6.90;;;22.20;64.60;;;;;;5115700;27;20023;-52
2021/06/25 02:13:05;;;;;;;12.57;7.80;;;22.40;62.20;;;;;;5115103;28;20015;-55
2021/06/25 02:15:32;;;;;;;10.73;6.63;;;22.30;64.60;;;;;;5115027;28;20059;-54
2021/06/25 02:18:00;;;;;;;11.00;7.18;;;22.40;62.00;;;;;;5115494;28;20514;-55
2021/06/25 02:20:27;;;;;;;11.40;6.82;;;22.60;59.40;;;;;;5115448;27;20031;-51
2021/06/25 02:22:54;;;;;;;10.88;7.32;;;22.70;61.20;;;;;;5115283;28;20020;-56
2021/06/25 02:25:22;;;;;;;10.27;6.82;;;22.70;63.40;;;;;;5115909;28;20611;-54
2021/06/25 02:27:49;;;;;;;11.80;7.28;;;22.50;61.30;;;;;;5115293;28;20086;-56
2021/06/25 02:30:17;;;;;;;9.07;5.40;;;22.50;63.60;;;;;;5115297;28;20024;-52
2021/06/25 02:32:46;;;;;;;10.63;6.97;;;22.60;62.80;;;;;;5115162;28;20028;-54
2021/06/25 02:35:15;;;;;;;8.48;5.70;;;22.50;64.00;;;;;;5114856;28;20073;-51
2021/06/25 02:37:43;;;;;;;9.10;5.25;;;22.50;62.70;;;;;;5115226;28;20032;-56
2021/06/25 02:40:12;;;;;;;10.00;6.93;;;22.60;62.70;;;;;;5115113;28;20081;-57
2021/06/25 02:42:39;;;;;;;12.07;6.50;;;22.50;61.60;;;;;;5115015;27;20094;-54
2021/06/25 02:45:08;;;;;;;7.95;5.40;;;22.60;62.10;;;;;;5114503;28;20031;-51
2021/06/25 02:47:37;;;;;;;7.60;5.60;;;22.70;61.10;;;;;;5114925;28;20047;-55
2021/06/25 02:50:07;;;;;;;5.90;4.22;;;22.80;61.80;;;;;;5114574;28;20031;-56
2021/06/25 02:52:37;;;;;;;6.55;4.35;;;22.80;62.30;;;;;;5113194;28;20019;-54
2021/06/25 02:55:06;;;;;;;6.65;4.50;;;22.80;58.80;;;;;;5114022;28;20040;-50
2021/06/25 02:57:42;;;;;;;6.65;4.50;;;22.90;62.80;;;;;;5114351;28;20366;-58
2021/06/25 03:00:19;;;;;;;6.65;4.20;;;23.00;60.20;;;;;;5114836;28;20023;-55
2021/06/25 03:02:50;;;;;;;8.20;4.95;;;23.00;59.10;;;;;;5115626;28;20479;-53
2021/06/25 03:05:19;;;;;;;6.10;4.38;;;22.90;60.40;;;;;;5112896;28;20038;-54
2021/06/25 03:07:46;;;;;;;7.35;4.70;;;23.00;62.80;;;;;;5114684;27;20012;-54
2021/06/25 03:10:14;;;;;;;6.65;4.45;;;23.10;59.70;;;;;;5114065;28;20378;-56
2021/06/25 03:12:41;;;;;;;8.60;4.15;;;23.10;60.70;;;;;;5112892;28;20048;-54
2021/06/25 03:15:09;;;;;;;5.38;4.10;;;23.20;57.70;;;;;;5113593;28;20327;-53
2021/06/25 03:17:37;;;;;;;7.13;4.35;;;23.20;58.50;;;;;;5114172;28;20358;-55
2021/06/25 03:20:06;;;;;;;6.65;3.83;;;23.20;60.30;;;;;;5113906;28;20466;-54
2021/06/25 03:22:34;;;;;;;4.75;3.20;;;23.40;57.70;;;;;;5113910;28;20367;-52
2021/06/25 03:25:01;;;;;;;5.68;3.38;;;23.40;60.30;;;;;;5114049;28;20027;-54
2021/06/25 03:27:28;;;;;;;5.95;4.03;;;23.50;57.60;;;;;;5113764;28;20048;-53
2021/06/25 03:29:56;;;;;;;4.97;3.15;;;23.50;57.70;;;;;;5114015;28;20032;-50
2021/06/25 03:32:23;;;;;;;3.85;3.20;;;23.50;59.90;;;;;;5114001;28;20020;-55
2021/06/25 03:34:51;;;;;;;8.38;3.50;;;23.50;60.20;;;;;;5113539;28;20032;-55
2021/06/25 03:37:18;;;;;;;8.32;3.50;;;23.40;61.00;;;;;;5114032;28;20034;-53
2021/06/25 03:39:46;;;;;;;6.20;3.28;;;23.40;58.30;;;;;;5114151;28;20039;-60
2021/06/25 03:42:13;;;;;;;7.25;3.33;;;23.40;60.40;;;;;;5113217;28;20028;-50
2021/06/25 03:44:40;;;;;;;5.00;2.72;;;23.30;60.50;;;;;;5112828;28;20020;-53
2021/06/25 03:47:08;;;;;;;5.57;3.60;;;23.10;59.90;;;;;;5112859;28;20383;-53
2021/06/25 03:49:35;;;;;;;5.18;2.85;;;23.00;62.00;;;;;;5113068;28;20020;-57
2021/06/25 03:52:03;;;;;;;4.93;3.00;;;22.90;60.10;;;;;;5113656;28;20474;-56
2021/06/25 03:54:30;;;;;;;4.18;2.78;;;23.00;61.60;;;;;;5113273;28;20034;-49
2021/06/25 03:57:01;;;;;;;3.65;2.22;;;22.90;59.10;;;;;;5113126;28;20027;-54
2021/06/25 03:59:28;;;;;;;3.88;2.60;;;22.90;61.70;;;;;;5113112;28;20068;-57
2021/06/25 04:01:55;;;;;;;4.18;2.80;;;22.90;60.00;;;;;;5113192;28;20055;-53
2021/06/25 04:04:23;;;;;;;7.50;2.33;;;22.80;58.70;;;;;;5113254;28;20153;-50
2021/06/25 04:06:51;;;;;;;3.97;2.65;;;22.70;60.10;;;;;;5112812;28;20082;-52
2021/06/25 04:09:18;;;;;;;5.95;2.65;;;22.50;61.50;;;;;;5113151;28;20020;-56
2021/06/25 04:11:45;;;;;;;3.35;2.35;;;22.40;60.10;;;;;;5112698;28;20043;-52
2021/06/25 04:14:13;;;;;;;5.43;2.33;;;22.40;62.60;;;;;;5112768;28;20038;-58
2021/06/25 04:16:40;;;;;;;4.20;2.60;;;22.40;60.60;;;;;;5113112;28;20027;-52
2021/06/25 04:19:07;;;;;;;2.85;2.33;;;22.40;62.90;;;;;;5112882;28;20027;-51
2021/06/25 04:21:35;;;;;;;5.35;3.20;;;22.50;62.60;;;;;;5112906;28;20035;-55
2021/06/25 04:24:02;;;;;;;3.78;2.00;;;22.50;61.70;;;;;;5113053;28;20027;-55
2021/06/25 04:26:35;;;;;;;3.55;1.77;;;22.60;62.60;;;;;;5113050;28;20089;-54
2021/06/25 04:29:04;;;;;;;4.05;2.20;;;22.70;60.20;;;;;;5112582;28;20020;-54
2021/06/25 04:31:33;;;;;;;7.50;2.25;;;22.80;61.10;;;;;;5112421;28;20024;-56
2021/06/25 04:34:01;;;;;;;4.03;2.10;;;22.90;61.30;;;;;;5112570;28;20026;-58
2021/06/25 04:36:28;;;;;;;5.10;1.63;;;22.90;61.20;;;;;;5112763;28;20470;-53
2021/06/25 04:38:56;;;;;;;3.13;2.20;;;23.10;61.40;;;;;;5112411;27;20050;-52
2021/06/25 04:41:23;;;;;;;4.63;1.70;;;23.10;58.60;;;;;;5112674;28;20110;-55
2021/06/25 04:43:51;;;;;;;6.50;2.00;;;23.00;59.30;;;;;;5112442;28;20347;-55
2021/06/25 04:46:19;;;;;;;2.95;1.73;;;22.90;61.30;;;;;;5112213;28;20107;-53
2021/06/25 04:48:46;;;;;;;2.88;1.60;;;22.90;61.30;;;;;;5112343;28;20023;-52
2021/06/25 04:51:13;;;;;;;3.17;1.85;;;22.90;62.40;;;;;;5077027;28;20033;-52
2021/06/25 04:53:41;;;;;;;4.88;2.22;;;22.90;61.50;;;;;;5071734;28;20463;-53
2021/06/25 04:56:08;;;;;;;3.47;1.60;;;22.90;59.30;;;;;;5070425;28;20124;-49
2021/06/25 04:58:35;;;;;;;2.20;1.70;;;23.00;58.30;;;;;;5071423;28;20043;-55
2021/06/25 05:01:03;;;;;;;1.85;1.48;;;23.00;58.70;;;;;;5071360;28;20097;-54
2021/06/25 05:03:33;;;;;;;2.15;1.60;;;23.10;59.10;;;;;;5070723;28;20099;-57
2021/06/25 05:06:00;;;;;;;2.63;1.42;;;23.10;61.30;;;;;;5071459;28;20149;-56
2021/06/25 05:08:27;;;;;;;2.30;1.50;;;23.10;61.10;;;;;;5071680;28;20029;-54
2021/06/25 05:10:55;;;;;;;1.27;1.17;;;23.20;60.90;;;;;;5071579;28;20017;-53
2021/06/25 05:13:22;;;;;;;1.65;1.33;;;23.20;57.50;;;;;;5071442;28;20025;-52
2021/06/25 05:15:49;;;;;;;3.00;1.42;;;23.00;60.70;;;;;;5071358;28;20114;-58
2021/06/25 05:18:22;;;;;;;2.85;1.58;;;22.90;60.10;;;;;;5071333;28;20021;-52
2021/06/25 05:20:53;;;;;;;2.42;1.55;;;22.80;58.90;;;;;;5070950;28;20030;-54
2021/06/25 05:23:20;;;;;;;2.88;1.50;;;22.60;60.00;;;;;;5071632;28;20032;-57
2021/06/25 05:25:48;;;;;;;2.83;1.38;;;22.40;58.60;;;;;;5071446;28;20030;-56
2021/06/25 05:28:16;;;;;;;1.48;1.20;;;22.20;57.60;;;;;;5071370;28;20028;-57
2021/06/25 05:30:43;;;;;;;2.13;1.63;;;22.10;59.70;;;;;;5071309;28;20028;-55
2021/06/25 05:33:11;;;;;;;2.63;1.35;;;21.90;60.20;;;;;;5071438;28;20025;-53
2021/06/25 05:35:38;;;;;;;2.65;1.10;;;21.70;61.60;;;;;;5070962;28;20450;-54
2021/06/25 05:38:10;;;;;;;4.25;1.88;;;21.70;59.50;;;;;;5069834;28;20029;-56
2021/06/25 05:40:38;;;;;;;1.55;0.98;;;21.60;58.50;;;;;;5071088;28;20075;-55
2021/06/25 05:43:06;;;;;;;3.03;1.40;;;21.50;63.30;;;;;;5071019;28;20028;-55
2021/06/25 05:45:35;;;;;;;2.75;1.30;;;21.40;62.00;;;;;;5071639;28;20021;-53
2021/06/25 05:48:03;;;;;;;2.78;1.15;;;21.30;60.00;;;;;;5070682;28;20108;-49
2021/06/25 05:50:31;;;;;;;3.03;1.30;;;21.10;63.20;;;;;;5071173;28;20024;-56
2021/06/25 05:52:59;;;;;;;3.08;1.52;;;21.00;64.60;;;;;;5071177;28;20044;-52
2021/06/25 05:55:26;;;;;;;2.13;1.20;;;20.90;62.50;;;;;;5071343;28;20060;-51
2021/06/25 05:57:53;;;;;;;7.20;2.13;;;20.60;64.60;;;;;;5071109;28;20021;-53
2021/06/25 06:00:21;;;;;;;4.55;1.45;;;20.50;61.20;;;;;;5070646;28;20033;-52
2021/06/25 06:02:48;;;;;;;1.20;0.90;;;20.40;63.40;;;;;;5071199;28;20111;-54
2021/06/25 06:05:16;;;;;;;2.10;1.15;;;20.30;64.90;;;;;;5070927;28;20028;-55
2021/06/25 06:07:43;;;;;;;1.83;1.15;;;20.20;63.80;;;;;;5073543;28;20305;-54
2021/06/25 06:10:11;;;;;;;2.05;1.23;;;20.00;69.80;;;;;;5074648;28;20024;-56
2021/06/25 06:12:39;;;;;;;2.20;1.15;;;19.90;70.70;;;;;;5074728;28;20120;-55
2021/06/25 06:15:07;;;;;;;1.35;0.95;;;19.80;71.90;;;;;;5074464;28;20044;-55
2021/06/25 06:17:38;;;;;;;1.10;1.00;;;19.70;69.00;;;;;;5074242;28;20108;-55
2021/06/25 06:20:07;;;;;;;3.60;1.52;;;19.60;68.10;;;;;;5074602;28;20027;-54
2021/06/25 06:36:28;;;;;;;2.70;1.10;;;19.20;65.60;;;;;;5074176;28;20029;-56
2021/06/25 06:38:55;;;;;;;;;;;19.20;68.70;;;;;;5074675;28;20024;-55
2021/06/25 06:41:23;;;;;;;2.25;1.30;;;19.10;72.30;;;;;;5074212;28;19905;-51
2021/06/25 06:43:51;;;;;;;1.60;1.20;;;19.10;71.70;;;;;;5074100;28;20555;-54
2021/06/25 06:46:18;;;;;;;1.30;0.90;;;19.00;70.90;;;;;;5073727;28;20046;-53
2021/06/25 06:48:47;;;;;;;1.67;0.93;;;18.90;70.70;;;;;;5074074;28;20533;-53
2021/06/25 06:51:18;;;;;;;1.83;0.88;;;18.90;73.70;;;;;;5074460;28;20115;-51
2021/06/25 06:53:46;;;;;;;2.47;1.00;;;18.90;69.20;;;;;;5074370;28;20033;-51
2021/06/25 06:56:15;;;;;;;1.35;0.90;;;18.80;72.60;;;;;;5074032;28;20529;-53
2021/06/25 06:58:45;;;;;;;1.20;0.77;;;18.70;74.50;;;;;;5073743;28;20059;-52
2021/06/25 07:01:13;;;;;;;3.25;1.30;;;18.70;73.20;;;;;;5073711;28;20036;-53
2021/06/25 07:03:42;;;;;;;1.88;1.10;;;18.70;71.50;;;;;;5073808;28;20021;-55
2021/06/25 07:06:09;;;;;;;1.00;0.90;;;18.70;73.90;;;;;;5072707;28;20063;-54
2021/06/25 07:08:37;;;;;;;1.75;0.70;;;18.60;73.00;;;;;;5073410;28;20032;-56
2021/06/25 07:11:04;;;;;;;1.45;0.80;;;18.60;74.50;;;;;;5073191;28;20116;-53
2021/06/25 07:13:31;;;;;;;1.75;1.08;;;18.50;74.00;;;;;;5073235;28;20103;-54
2021/06/25 07:15:59;;;;;;;1.33;0.85;;;18.50;75.90;;;;;;5073293;28;20041;-53
2021/06/25 07:18:27;;;;;;;1.17;0.82;;;18.40;75.30;;;;;;5072722;28;20148;-53
2021/06/25 07:20:54;;;;;;;3.42;1.40;;;18.40;73.80;;;;;;5072735;28;20024;-50
2021/06/25 07:23:22;;;;;;;1.88;0.95;;;18.30;75.60;;;;;;5073381;28;20119;-48
2021/06/25 07:25:49;;;;;;;2.13;0.90;;;18.30;74.10;;;;;;5073187;28;20029;-52
2021/06/25 07:28:16;;;;;;;1.15;0.80;;;18.30;76.40;;;;;;5073225;28;20044;-50
2021/06/25 07:30:44;;;;;;;1.60;0.98;;;18.30;72.70;;;;;;5073145;28;20051;-51
2021/06/25 07:33:11;;;;;;;3.92;0.90;;;18.20;73.40;;;;;;5073019;28;20020;-53
2021/06/25 07:35:39;;;;;;;2.28;1.20;;;18.20;76.10;;;;;;5073043;28;20064;-55
2021/06/25 07:38:06;;;;;;;2.33;1.15;;;18.20;75.00;;;;;;5073123;28;20112;-51
2021/06/25 07:40:34;;;;;;;1.85;0.80;;;18.20;75.10;;;;;;5072947;28;20036;-55
2021/06/25 07:43:01;;;;;;;2.53;1.00;;;18.10;76.40;;;;;;5072876;28;20016;-51
2021/06/25 07:45:28;;;;;;;1.27;0.85;;;18.10;75.20;;;;;;5073096;28;20100;-53
2021/06/25 07:47:56;;;;;;;1.05;0.90;;;18.10;75.70;;;;;;5072581;28;20100;-56
2021/06/25 07:50:24;;;;;;;1.73;1.05;;;18.00;76.60;;;;;;5078492;28;20028;-55
2021/06/25 07:52:51;;;;;;;2.38;0.90;;;18.00;75.40;;;;;;5092312;28;20031;-54
2021/06/25 07:55:19;;;;;;;2.25;1.00;;;18.00;76.30;;;;;;5093965;28;20047;-55
2021/06/25 07:57:46;;;;;;;1.40;1.10;;;17.90;74.40;;;;;;5093899;28;20061;-55
2021/06/25 08:00:14;;;;;;;2.20;1.20;;;17.90;75.00;;;;;;5093157;28;20324;-58
2021/06/25 08:02:42;;;;;;;1.65;1.08;;;17.90;77.40;;;;;;5093220;28;20038;-50
2021/06/25 08:05:10;;;;;;;2.45;1.27;;;17.90;76.70;;;;;;5093046;28;20039;-55
2021/06/25 08:07:37;;;;;;;3.17;0.90;;;17.80;76.20;;;;;;5093257;28;20028;-58
2021/06/25 08:10:07;;;;;;;2.50;0.98;;;17.80;77.50;;;;;;5093156;28;20028;-56
2021/06/25 08:12:34;;;;;;;2.45;1.23;;;17.80;77.40;;;;;;5093218;28;20052;-54
2021/06/25 08:15:02;;;;;;;0.80;0.77;;;17.80;76.20;;;;;;5092965;28;20044;-52
2021/06/25 08:17:29;;;;;;;1.25;0.88;;;17.70;77.00;;;;;;5093662;28;20023;-55
2021/06/25 08:19:57;;;;;;;2.15;0.95;;;17.70;76.10;;;;;;5092210;28;20027;-54
2021/06/25 08:22:24;;;;;;;2.17;1.05;;;17.70;76.90;;;;;;5092581;28;20043;-54
2021/06/25 08:24:51;;;;;;;1.85;1.30;;;17.70;76.60;;;;;;5093083;28;20025;-53
2021/06/25 08:27:19;;;;;;;2.83;1.13;;;17.70;77.40;;;;;;5092801;28;20048;-52
2021/06/25 08:29:47;;;;;;;2.28;1.00;;;17.70;77.00;;;;;;5093417;28;20386;-55
2021/06/25 08:32:14;;;;;;;1.02;0.80;;;17.70;77.00;;;;;;5093164;28;20044;-58
2021/06/25 08:34:42;;;;;;;1.45;0.80;;;17.70;78.40;;;;;;5092879;28;20490;-55
2021/06/25 08:37:09;;;;;;;1.98;1.17;;;17.60;78.00;;;;;;5092922;28;20036;-54
2021/06/25 08:39:38;;;;;;;1.52;1.00;;;17.60;78.50;;;;;;5092940;28;20024;-54
2021/06/25 08:42:06;;;;;;;1.13;0.73;;;17.60;78.70;;;;;;5093121;28;20076;-54
2021/06/25 08:44:39;;;;;;;1.85;0.93;;;17.50;78.30;;;;;;5093263;28;20024;-54
2021/06/25 08:47:06;;;;;;;;;;;17.50;78.70;;;;;;5092226;28;20020;-51
2021/06/25 08:49:35;;;;;;;1.70;1.23;;;17.50;79.00;;;;;;5091032;28;19986;-55
2021/06/25 08:52:04;;;;;;;1.70;0.70;;;17.50;78.80;;;;;;5092863;28;20028;-53
2021/06/25 08:54:33;;;;;;;1.63;1.17;;;17.50;78.50;;;;;;5092774;28;20154;-56
2021/06/25 08:57:03;;;;;;;0.90;0.90;;;17.50;78.80;;;;;;5092627;28;20115;-50
2021/06/25 08:59:31;;;;;;;1.33;1.20;;;17.40;78.70;;;;;;5092563;28;20383;-56
2021/06/25 09:01:59;;;;;;;2.42;1.10;;;17.50;78.70;;;;;;5092398;28;20505;-57
2021/06/25 09:04:36;;;;;;;1.60;0.80;;;17.40;78.00;;;;;;5092775;28;20035;-57
2021/06/25 09:07:11;;;;;;;1.45;0.73;;;17.40;79.10;;;;;;5091788;28;20170;-55
2021/06/25 09:09:49;;;;;;;1.00;0.90;;;17.40;78.60;;;;;;5091781;28;20020;-56
2021/06/25 09:12:22;;;;;;;1.65;0.93;;;17.40;78.60;;;;;;5092054;28;20028;-55
2021/06/25 09:15:17;;;;;;;2.47;1.02;;;17.40;78.40;;;;;;5091796;28;20162;-56
2021/06/25 09:18:05;;;;;;;2.08;1.23;;;17.40;77.90;;;;;;5089533;28;20043;-54
2021/06/25 09:20:56;;;;;;;2.15;1.17;;;17.30;78.90;;;;;;5091959;28;20398;-56
2021/06/25 09:23:29;;;;;;;2.42;0.93;;;17.30;78.60;;;;;;5092185;28;20107;-52
2021/06/25 09:26:06;;;;;;;2.05;0.90;;;17.30;77.70;;;;;;5091797;28;20024;-51
2021/06/25 09:28:53;;;;;;;2.00;1.10;;;17.30;78.20;;;;;;5091926;28;20044;-58
2021/06/25 09:31:28;;;;;;;1.08;0.98;;;17.30;77.70;;;;;;5091964;28;20565;-55
2021/06/25 09:33:58;;;;;;;1.95;1.00;;;17.30;78.30;;;;;;5092020;28;20187;-56
2021/06/25 09:36:36;;;;;;;1.52;1.20;;;17.20;78.50;;;;;;5092123;28;20471;-52
2021/06/25 09:39:08;;;;;;;1.77;1.05;;;17.20;78.30;;;;;;5091512;28;20028;-57
2021/06/25 09:41:37;;;;;;;1.23;1.00;;;17.20;78.90;;;;;;5093355;28;20063;-53
2021/06/25 09:44:11;;;;;;;1.77;1.02;;;17.20;78.90;;;;;;5094611;28;20308;-53
2021/06/25 09:46:43;;;;;;;2.72;1.23;;;17.20;78.50;;;;;;5095887;28;20108;-53
2021/06/25 09:49:12;;;;;;;2.67;1.00;;;17.10;78.40;;;;;;5095576;28;20106;-60
2021/06/25 09:51:41;;;;;;;0.93;0.93;;;17.20;78.30;;;;;;5095559;28;20476;-55
2021/06/25 09:54:16;;;;;;;2.22;1.25;;;17.10;78.00;;;;;;5095822;28;20024;-56
2021/06/25 09:56:55;;;;;;;1.48;0.95;;;17.10;78.00;;;;;;5095946;28;20096;-54
2021/06/25 10:02:22;;;;;;;1.58;1.20;;;17.00;78.50;;;;;;5095742;28;20211;-53
2021/06/25 10:05:09;;;;;;;1.00;0.80;;;17.00;79.10;;;;;;5095027;28;20030;-56
2021/06/25 10:07:36;;;;;;;1.92;1.15;;;17.00;79.00;;;;;;5095955;28;20042;-51
2021/06/25 10:10:11;;;;;;;2.67;1.48;;;17.00;79.20;;;;;;5095645;28;20111;-57
2021/06/25 10:12:44;;;;;;;3.60;1.20;;;17.00;77.70;;;;;;5095460;28;20064;-52
2021/06/25 10:15:12;;;;;;;1.70;1.17;;;17.00;79.30;;;;;;5095221;28;20028;-55
2021/06/25 10:17:41;;;;;;;1.35;1.00;;;16.90;79.50;;;;;;5095331;28;20032;-53
2021/06/25 10:20:11;;;;;;;3.63;1.00;;;16.90;79.30;;;;;;5095289;28;20026;-54
2021/06/25 10:22:43;;;;;;;1.88;1.13;;;16.90;79.40;;;;;;5095125;28;20031;-59
2021/06/25 10:25:11;;;;;;;2.72;1.33;;;16.90;79.30;;;;;;5095169;28;20356;-55
2021/06/25 10:27:39;;;;;;;2.85;1.25;;;16.80;79.50;;;;;;5094746;28;20098;-56
2021/06/25 10:30:07;;;;;;;1.30;1.08;;;16.80;79.50;;;;;;5095104;28;20440;-52
2021/06/25 10:32:39;;;;;;;2.55;1.60;;;16.80;79.70;;;;;;5094780;28;20110;-52
2021/06/25 10:35:13;;;;;;;1.20;1.10;;;16.80;79.60;;;;;;5094758;28;20024;-56
2021/06/25 10:37:45;;;;;;;1.52;1.38;;;16.80;79.70;;;;;;5094726;28;20478;-55
2021/06/25 10:40:22;;;;;;;;;;;16.70;79.70;;;;;;5095520;28;20086;-54
2021/06/25 10:42:50;;;;;;;2.63;1.58;;;16.70;79.80;;;;;;5093469;28;19911;-52
2021/06/25 10:45:17;;;;;;;2.10;1.30;;;16.70;79.80;;;;;;5095024;28;20104;-56
2021/06/25 10:47:56;;;;;;;2.10;1.60;;;16.70;80.00;;;;;;5094823;28;20024;-55
2021/06/25 10:50:24;;;;;;;1.55;1.30;;;16.60;79.80;;;;;;5089832;28;20488;-56
2021/06/25 10:53:12;;;;;;;2.13;1.65;;;16.60;80.00;;;;;;5093730;28;20078;-56
2021/06/25 10:55:47;;;;;;;1.90;1.58;;;16.60;80.10;;;;;;5093422;28;20036;-53
2021/06/25 10:58:25;;;;;;;2.25;1.52;;;16.60;80.10;;;;;;5094725;28;20028;-56
2021/06/25 11:01:00;;;;;;;2.42;1.42;;;16.60;80.10;;;;;;5094689;28;20042;-56
2021/06/25 11:03:38;;;;;;;2.47;2.00;;;16.60;80.30;;;;;;5094399;28;20016;-55
2021/06/25 11:06:46;;;;;;;2.55;1.48;;;16.50;80.30;;;;;;5094332;28;20031;-54
2021/06/25 11:09:14;;;;;;;2.03;1.38;;;16.50;80.30;;;;;;5094088;28;20427;-54
2021/06/25 11:11:41;;;;;;;2.47;1.40;;;16.50;80.30;;;;;;5094165;28;20103;-56
2021/06/25 11:14:25;;;;;;;2.38;1.75;;;16.50;80.50;;;;;;5094168;28;20024;-53
2021/06/25 11:16:52;;;;;;;2.08;1.60;;;16.40;80.30;;;;;;5094134;28;20036;-56
2021/06/25 11:19:40;;;;;;;4.10;1.90;;;16.50;80.50;;;;;;5094158;28;20024;-55
2021/06/25 11:22:39;;;;;;;2.13;1.92;;;16.40;80.40;;;;;;5094132;28;20020;-54
2021/06/25 11:25:15;;;;;;;1.70;1.52;;;16.40;80.50;;;;;;5093973;28;20024;-56
2021/06/25 11:28:16;;;;;;;2.90;1.55;;;16.40;80.50;;;;;;5094130;28;20051;-52
2021/06/25 11:30:52;;;;;;;1.58;1.40;;;16.40;80.50;;;;;;5088944;28;20032;-49
2021/06/25 11:33:31;;;;;;;3.50;1.50;;;16.40;80.50;;;;;;5093963;28;20054;-56
2021/06/25 11:36:21;;;;;;;1.80;1.40;;;16.30;80.60;;;;;;5094042;28;20042;-54
2021/06/25 11:38:59;;;;;;;3.15;1.70;;;16.40;80.60;;;;;;5093835;28;20351;-53
2021/06/25 11:41:34;;;;;;;4.22;2.00;;;16.30;80.60;;;;;;5093980;28;20032;-56
2021/06/25 11:44:05;;;;;;;3.30;2.10;;;16.30;80.60;;;;;;5094063;28;20017;-53
2021/06/25 11:46:33;;;;;;;2.80;1.92;;;16.30;80.70;;;;;;5093488;28;20032;-51
2021/06/25 11:49:02;;;;;;;3.40;1.77;;;16.30;80.70;;;;;;5093209;28;20130;-52
2021/06/25 11:51:41;;;;;;;2.35;1.58;;;16.30;80.70;;;;;;5093611;28;20031;-51
2021/06/25 11:54:12;;;;;;;3.42;1.95;;;16.20;80.70;;;;;;5093830;28;20103;-50
2021/06/25 11:56:43;;;;;;;3.38;1.90;;;16.20;80.80;;;;;;5093307;28;20033;-57
2021/06/25 11:59:11;;;;;;;1.65;1.42;;;16.20;80.80;;;;;;5093486;28;20138;-53
2021/06/25 12:02:02;;;;;;;3.72;1.75;;;16.20;81.40;;;;;;5093476;28;20035;-57
2021/06/25 12:04:43;;;;;;;2.30;1.80;;;16.20;80.90;;;;;;5093091;28;20051;-54
2021/06/25 12:07:15;;;;;;;2.38;1.90;;;16.20;80.90;;;;;;5093231;28;20032;-52
2021/06/25 12:09:44;;;;;;;2.17;1.25;;;16.20;80.90;;;;;;5093921;28;20060;-52
2021/06/25 12:12:20;;;;;;;3.22;1.83;;;16.20;80.90;;;;;;5093445;28;20109;-48
2021/06/25 12:14:49;;;;;;;2.03;1.77;;;16.10;81.00;;;;;;5093214;28;20031;-48
2021/06/25 12:17:18;;;;;;;2.78;1.75;;;16.10;81.00;;;;;;5093258;28;20437;-54
2021/06/25 12:20:06;;;;;;;2.72;1.63;;;16.10;81.10;;;;;;5093328;28;20020;-53
2021/06/25 12:23:03;;;;;;;2.95;1.95;;;16.10;81.00;;;;;;5093431;28;20020;-56
2021/06/25 12:25:35;;;;;;;2.92;1.65;;;16.10;81.00;;;;;;5092997;28;20045;-52
2021/06/25 12:28:17;;;;;;;2.13;1.33;;;16.10;80.90;;;;;;5092958;28;20498;-54
2021/06/25 12:30:59;;;;;;;1.88;1.60;;;16.10;81.00;;;;;;5093011;28;20089;-56
2021/06/25 12:33:31;;;;;;;2.78;1.60;;;16.00;81.00;;;;;;5093073;28;20030;-55
2021/06/25 12:36:01;;;;;;;2.38;1.63;;;16.10;80.90;;;;;;5093394;28;20429;-54
2021/06/25 12:38:30;;;;;;;2.35;1.67;;;16.00;81.00;;;;;;5092777;28;20023;-55
2021/06/25 12:41:07;;;;;;;1.67;1.50;;;16.00;81.10;;;;;;5092721;28;20024;-53
2021/06/25 12:43:40;;;;;;;3.08;1.77;;;16.00;81.00;;;;;;5092800;28;20024;-57
2021/06/25 12:46:12;;;;;;;2.63;1.70;;;16.00;81.00;;;;;;5092679;28;20374;-51
2021/06/25 12:48:50;;;;;;;2.33;2.00;;;16.00;81.10;;;;;;5092457;28;20024;-51
2021/06/25 12:51:34;;;;;;;3.70;1.92;;;16.00;81.20;;;;;;5092805;28;20382;-58
2021/06/25 12:54:03;;;;;;;3.40;1.50;;;16.00;81.10;;;;;;5093011;28;20033;-56
2021/06/25 12:56:38;;;;;;;1.95;1.52;;;16.00;81.20;;;;;;5093096;28;20176;-56
2021/06/25 12:59:15;;;;;;;2.13;1.60;;;16.00;81.20;;;;;;5092434;28;20094;-53
2021/06/25 13:01:44;;;;;;;2.70;1.67;;;16.00;81.20;;;;;;5092678;28;20027;-57
2021/06/25 13:04:28;;;;;;;2.28;1.88;;;15.90;81.20;;;;;;5092575;28;20063;-57
2021/06/25 13:07:07;;;;;;;2.83;1.90;;;15.90;81.20;;;;;;5092519;28;20020;-56
2021/06/25 13:09:39;;;;;;;2.63;1.67;;;15.90;81.20;;;;;;5092563;28;20028;-55
2021/06/25 13:12:13;;;;;;;3.22;1.77;;;15.90;81.30;;;;;;5092696;28;20482;-55
2021/06/25 13:14:46;;;;;;;2.08;1.77;;;15.90;81.10;;;;;;5092804;28;20033;-54
2021/06/25 13:17:17;;;;;;;3.78;1.80;;;15.90;81.20;;;;;;5094434;28;20035;-51